sensor_id;sensor_type;location;lat;lon;timestamp;pressure;altitude;pressure_sealevel;temperature;humidity
27958;BME280;15295;42.658;23.374;2023-06-14T00:00:02;94302.41;;;22.67;60.04
27958;BME280;15295;42.658;23.374;2023-06-14T00:02:30;94303.94;;;22.68;60.08
27958;BME280;15295;42.658;23.374;2023-06-14T00:05:28;94343.41;;;22.96;59.84
27958;BME280;15295;42.658;23.374;2023-06-14T00:08:17;94292.91;;;22.59;59.83
27958;BME280;15295;42.658;23.374;2023-06-14T00:11:10;94345.69;;;22.97;59.95
27958;BME280;15295;42.658;23.374;2023-06-14T00:14:03;94318.34;;;22.81;60.12
27958;BME280;15295;42.658;23.374;2023-06-14T00:16:47;94300.28;;;22.77;59.86
27958;BME280;15295;42.658;23.374;2023-06-14T00:21:55;94320.84;;;22.79;60.08
27958;BME280;15295;42.658;23.374;2023-06-14T00:24:42;94315.13;;;22.88;60.09
27958;BME280;15295;42.658;23.374;2023-06-14T00:27:32;94305.38;;;22.78;60.49
27958;BME280;15295;42.658;23.374;2023-06-14T00:30:21;94271.81;;;22.58;60.24
27958;BME280;15295;42.658;23.374;2023-06-14T00:33:25;94289.03;;;22.71;59.89
27958;BME280;15295;42.658;23.374;2023-06-14T00:35:59;94292.97;;;22.65;60.25
27958;BME280;15295;42.658;23.374;2023-06-14T00:38:38;94273.75;;;22.52;60.12
27958;BME280;15295;42.658;23.374;2023-06-14T00:41:08;94309.22;;;22.81;60.21
27958;BME280;15295;42.658;23.374;2023-06-14T00:43:52;94326.69;;;22.96;59.90
27958;BME280;15295;42.658;23.374;2023-06-14T00:46:34;94314.41;;;22.88;60.11
27958;BME280;15295;42.658;23.374;2023-06-14T00:49:08;94265.81;;;22.60;59.59
27958;BME280;15295;42.658;23.374;2023-06-14T00:51:48;94316.47;;;22.93;59.82
27958;BME280;15295;42.658;23.374;2023-06-14T00:54:20;94277.53;;;22.64;59.56
27958;BME280;15295;42.658;23.374;2023-06-14T00:57:04;94301.25;;;22.74;59.66
27958;BME280;15295;42.658;23.374;2023-06-14T01:02:29;94317.94;;;22.88;59.91
27958;BME280;15295;42.658;23.374;2023-06-14T01:05:29;94299.91;;;22.69;59.78
27958;BME280;15295;42.658;23.374;2023-06-14T01:11:22;94318.03;;;22.94;60.07
27958;BME280;15295;42.658;23.374;2023-06-14T01:14:11;94316.03;;;22.94;60.32
27958;BME280;15295;42.658;23.374;2023-06-14T01:16:51;94312.53;;;22.99;60.17
27958;BME280;15295;42.658;23.374;2023-06-14T01:19:20;94317.94;;;23.03;60.44
27958;BME280;15295;42.658;23.374;2023-06-14T01:22:00;94321.75;;;23.06;60.07
27958;BME280;15295;42.658;23.374;2023-06-14T01:24:51;94296.69;;;22.91;60.16
27958;BME280;15295;42.658;23.374;2023-06-14T01:27:34;94279.47;;;22.92;59.39
27958;BME280;15295;42.658;23.374;2023-06-14T01:30:09;94267.50;;;22.86;59.47
27958;BME280;15295;42.658;23.374;2023-06-14T01:32:59;94289.19;;;22.97;59.61
27958;BME280;15295;42.658;23.374;2023-06-14T01:35:34;94262.41;;;22.85;59.47
27958;BME280;15295;42.658;23.374;2023-06-14T01:38:46;94308.19;;;23.13;59.46
27958;BME280;15295;42.658;23.374;2023-06-14T01:41:29;94313.56;;;23.17;59.27
27958;BME280;15295;42.658;23.374;2023-06-14T01:47:28;94293.25;;;22.96;59.06
27958;BME280;15295;42.658;23.374;2023-06-14T01:53:19;94262.72;;;22.72;59.50
27958;BME280;15295;42.658;23.374;2023-06-14T01:56:37;94250.81;;;22.72;59.00
27958;BME280;15295;42.658;23.374;2023-06-14T02:09:25;94282.53;;;22.60;59.56
27958;BME280;15295;42.658;23.374;2023-06-14T02:15:08;94313.72;;;22.78;59.94
27958;BME280;15295;42.658;23.374;2023-06-14T02:17:52;94318.63;;;22.83;59.63
27958;BME280;15295;42.658;23.374;2023-06-14T02:20:22;94320.84;;;22.79;59.75
27958;BME280;15295;42.658;23.374;2023-06-14T02:22:58;94302.13;;;22.65;59.92
27958;BME280;15295;42.658;23.374;2023-06-14T02:25:31;94282.13;;;22.52;59.87
27958;BME280;15295;42.658;23.374;2023-06-14T02:28:07;94289.16;;;22.62;59.71
27958;BME280;15295;42.658;23.374;2023-06-14T02:30:57;94341.28;;;22.91;60.06
27958;BME280;15295;42.658;23.374;2023-06-14T02:33:34;94348.41;;;22.92;59.99
27958;BME280;15295;42.658;23.374;2023-06-14T02:36:37;94313.25;;;22.65;60.08
27958;BME280;15295;42.658;23.374;2023-06-14T02:39:14;94339.94;;;22.86;60.10
27958;BME280;15295;42.658;23.374;2023-06-14T02:42:24;94305.38;;;22.64;59.91
27958;BME280;15295;42.658;23.374;2023-06-14T02:45:17;94344.84;;;22.91;59.76
27958;BME280;15295;42.658;23.374;2023-06-14T02:47:53;94330.94;;;22.77;59.71
27958;BME280;15295;42.658;23.374;2023-06-14T02:50:37;94328.03;;;22.71;59.65
27958;BME280;15295;42.658;23.374;2023-06-14T02:53:12;94319.50;;;22.60;59.89
27958;BME280;15295;42.658;23.374;2023-06-14T02:55:50;94343.03;;;22.74;59.85
27958;BME280;15295;42.658;23.374;2023-06-14T02:58:26;94294.81;;;22.39;60.06
27958;BME280;15295;42.658;23.374;2023-06-14T03:01:13;94345.31;;;22.75;59.79
27958;BME280;15295;42.658;23.374;2023-06-14T03:04:13;94338.78;;;22.49;60.04
27958;BME280;15295;42.658;23.374;2023-06-14T03:07:00;94355.38;;;22.58;60.27
27958;BME280;15295;42.658;23.374;2023-06-14T03:09:55;94320.16;;;22.41;60.16
27958;BME280;15295;42.658;23.374;2023-06-14T03:12:33;94357.16;;;22.70;59.75
27958;BME280;15295;42.658;23.374;2023-06-14T03:15:22;94337.09;;;22.66;59.35
27958;BME280;15295;42.658;23.374;2023-06-14T03:18:07;94348.41;;;22.63;59.98
27958;BME280;15295;42.658;23.374;2023-06-14T03:20:48;94329.38;;;22.47;59.82
27958;BME280;15295;42.658;23.374;2023-06-14T03:23:32;94316.78;;;22.37;59.58
27958;BME280;15295;42.658;23.374;2023-06-14T03:26:12;94329.00;;;22.54;60.02
27958;BME280;15295;42.658;23.374;2023-06-14T03:28:44;94347.03;;;22.58;60.09
27958;BME280;15295;42.658;23.374;2023-06-14T03:34:09;94316.41;;;22.44;59.82
27958;BME280;15295;42.658;23.374;2023-06-14T03:36:52;94351.00;;;22.66;59.99
27958;BME280;15295;42.658;23.374;2023-06-14T03:39:31;94304.19;;;22.41;59.84
27958;BME280;15295;42.658;23.374;2023-06-14T03:41:59;94341.69;;;22.69;59.43
27958;BME280;15295;42.658;23.374;2023-06-14T03:44:36;94340.88;;;22.54;59.38
27958;BME280;15295;42.658;23.374;2023-06-14T03:47:15;94314.75;;;22.37;59.88
27958;BME280;15295;42.658;23.374;2023-06-14T03:50:21;94374.44;;;22.74;59.74
27958;BME280;15295;42.658;23.374;2023-06-14T03:53:29;94361.09;;;22.78;59.96
27958;BME280;15295;42.658;23.374;2023-06-14T03:58:32;94372.81;;;22.82;59.99
27958;BME280;15295;42.658;23.374;2023-06-14T04:01:25;94374.34;;;22.83;59.72
27958;BME280;15295;42.658;23.374;2023-06-14T04:04:44;94378.38;;;22.82;59.49
27958;BME280;15295;42.658;23.374;2023-06-14T04:07:28;94340.03;;;22.48;60.14
27958;BME280;15295;42.658;23.374;2023-06-14T04:10:07;94367.44;;;22.64;59.86
27958;BME280;15295;42.658;23.374;2023-06-14T04:12:54;94343.66;;;22.54;60.08
27958;BME280;15295;42.658;23.374;2023-06-14T04:15:26;94316.69;;;22.46;60.09
27958;BME280;15295;42.658;23.374;2023-06-14T04:18:24;94354.94;;;22.60;59.72
27958;BME280;15295;42.658;23.374;2023-06-14T04:20:57;94348.94;;;22.52;59.99
27958;BME280;15295;42.658;23.374;2023-06-14T04:23:28;94337.22;;;22.48;59.71
27958;BME280;15295;42.658;23.374;2023-06-14T04:25:54;94344.88;;;22.62;59.62
27958;BME280;15295;42.658;23.374;2023-06-14T04:28:31;94366.09;;;22.74;59.52
27958;BME280;15295;42.658;23.374;2023-06-14T04:31:41;94331.13;;;22.59;59.88
27958;BME280;15295;42.658;23.374;2023-06-14T04:34:25;94348.09;;;22.75;59.53
27958;BME280;15295;42.658;23.374;2023-06-14T04:36:56;94376.72;;;22.90;59.08
27958;BME280;15295;42.658;23.374;2023-06-14T04:39:27;94364.16;;;22.80;59.39
27958;BME280;15295;42.658;23.374;2023-06-14T04:41:58;94355.91;;;22.86;59.30
27958;BME280;15295;42.658;23.374;2023-06-14T04:44:29;94343.69;;;22.83;59.17
27958;BME280;15295;42.658;23.374;2023-06-14T04:46:59;94376.47;;;23.03;59.28
27958;BME280;15295;42.658;23.374;2023-06-14T04:49:37;94385.25;;;23.16;58.78
27958;BME280;15295;42.658;23.374;2023-06-14T04:54:39;94387.75;;;23.29;58.66
27958;BME280;15295;42.658;23.374;2023-06-14T04:57:08;94366.91;;;23.10;58.59
27958;BME280;15295;42.658;23.374;2023-06-14T04:59:38;94395.81;;;23.27;58.80
27958;BME280;15295;42.658;23.374;2023-06-14T05:02:04;94391.50;;;23.26;58.53
27958;BME280;15295;42.658;23.374;2023-06-14T05:04:30;94392.34;;;23.32;58.71
27958;BME280;15295;42.658;23.374;2023-06-14T05:06:58;94404.06;;;23.50;58.69
27958;BME280;15295;42.658;23.374;2023-06-14T05:09:23;94402.50;;;23.64;58.52
27958;BME280;15295;42.658;23.374;2023-06-14T05:11:49;94398.59;;;23.76;57.38
27958;BME280;15295;42.658;23.374;2023-06-14T05:14:15;94391.78;;;23.77;57.05
27958;BME280;15295;42.658;23.374;2023-06-14T05:16:41;94394.91;;;23.85;56.63
27958;BME280;15295;42.658;23.374;2023-06-14T05:19:08;94398.13;;;23.98;56.58
27958;BME280;15295;42.658;23.374;2023-06-14T05:21:36;94401.50;;;24.22;56.04
27958;BME280;15295;42.658;23.374;2023-06-14T05:24:02;94409.19;;;24.27;55.31
27958;BME280;15295;42.658;23.374;2023-06-14T05:26:28;94394.19;;;24.24;54.97
27958;BME280;15295;42.658;23.374;2023-06-14T05:28:57;94418.00;;;24.40;54.60
27958;BME280;15295;42.658;23.374;2023-06-14T05:31:29;94414.75;;;24.47;54.51
27958;BME280;15295;42.658;23.374;2023-06-14T05:34:01;94424.88;;;24.44;54.73
27958;BME280;15295;42.658;23.374;2023-06-14T05:36:54;94406.47;;;24.32;55.20
27958;BME280;15295;42.658;23.374;2023-06-14T05:39:53;94426.06;;;24.38;54.89
27958;BME280;15295;42.658;23.374;2023-06-14T05:42:58;94419.00;;;24.42;55.27
27958;BME280;15295;42.658;23.374;2023-06-14T05:46:04;94423.03;;;24.62;54.60
27958;BME280;15295;42.658;23.374;2023-06-14T05:48:39;94393.69;;;24.46;54.11
27958;BME280;15295;42.658;23.374;2023-06-14T05:51:16;94405.72;;;24.58;53.60
27958;BME280;15295;42.658;23.374;2023-06-14T05:56:41;94405.63;;;24.72;53.79
27958;BME280;15295;42.658;23.374;2023-06-14T05:59:18;94399.56;;;24.74;53.68
27958;BME280;15295;42.658;23.374;2023-06-14T06:02:01;94422.97;;;25.02;52.91
27958;BME280;15295;42.658;23.374;2023-06-14T06:04:29;94402.84;;;24.98;52.83
27958;BME280;15295;42.658;23.374;2023-06-14T06:06:56;94420.91;;;25.28;53.19
27958;BME280;15295;42.658;23.374;2023-06-14T06:14:47;94415.25;;;25.48;51.11
27958;BME280;15295;42.658;23.374;2023-06-14T06:17:15;94428.81;;;25.61;51.33
27958;BME280;15295;42.658;23.374;2023-06-14T06:19:54;94424.59;;;25.76;51.04
27958;BME280;15295;42.658;23.374;2023-06-14T06:22:20;94441.19;;;25.85;50.24
27958;BME280;15295;42.658;23.374;2023-06-14T06:24:50;94397.25;;;25.60;50.28
27958;BME280;15295;42.658;23.374;2023-06-14T06:27:17;94415.41;;;25.70;49.79
27958;BME280;15295;42.658;23.374;2023-06-14T06:30:04;94437.16;;;25.92;49.54
27958;BME280;15295;42.658;23.374;2023-06-14T06:41:12;94460.03;;;26.22;48.43
27958;BME280;15295;42.658;23.374;2023-06-14T07:04:23;94432.94;;;26.08;49.36
27958;BME280;15295;42.658;23.374;2023-06-14T07:07:14;94420.44;;;26.03;48.73
27958;BME280;15295;42.658;23.374;2023-06-14T07:09:40;94459.53;;;26.29;48.80
27958;BME280;15295;42.658;23.374;2023-06-14T07:12:07;94443.19;;;26.16;48.61
27958;BME280;15295;42.658;23.374;2023-06-14T07:14:45;94450.34;;;26.23;48.43
27958;BME280;15295;42.658;23.374;2023-06-14T08:34:16;94469.66;;;28.79;41.46
27958;BME280;15295;42.658;23.374;2023-06-14T08:49:58;94453.25;;;29.35;39.99
27958;BME280;15295;42.658;23.374;2023-06-14T09:37:40;94413.53;;;29.03;40.06
27958;BME280;15295;42.658;23.374;2023-06-14T09:40:08;94456.34;;;29.31;39.92
27958;BME280;15295;42.658;23.374;2023-06-14T09:42:56;94455.97;;;29.46;39.95
27958;BME280;15295;42.658;23.374;2023-06-14T09:48:29;94453.47;;;29.42;40.11
27958;BME280;15295;42.658;23.374;2023-06-14T10:06:15;94385.66;;;29.40;39.18
27958;BME280;15295;42.658;23.374;2023-06-14T11:47:35;94340.41;;;30.91;33.28
27958;BME280;15295;42.658;23.374;2023-06-14T11:55:28;94317.38;;;30.87;33.66
27958;BME280;15295;42.658;23.374;2023-06-14T12:27:09;94305.13;;;31.16;34.19
27958;BME280;15295;42.658;23.374;2023-06-14T12:39:09;94298.63;;;30.71;34.89
27958;BME280;15295;42.658;23.374;2023-06-14T12:41:43;94268.75;;;30.43;35.09
27958;BME280;15295;42.658;23.374;2023-06-14T12:44:24;94279.53;;;30.45;35.39
27958;BME280;15295;42.658;23.374;2023-06-14T12:47:23;94268.06;;;30.37;35.32
27958;BME280;15295;42.658;23.374;2023-06-14T13:08:42;94287.13;;;29.40;39.30
27958;BME280;15295;42.658;23.374;2023-06-14T18:43:38;94487.94;;;24.71;55.00
27958;BME280;15295;42.658;23.374;2023-06-14T18:47:01;94503.25;;;24.76;55.60
27958;BME280;15295;42.658;23.374;2023-06-14T19:00:25;94475.44;;;24.67;55.99
27958;BME280;15295;42.658;23.374;2023-06-14T19:03:35;94455.53;;;24.59;56.68
27958;BME280;15295;42.658;23.374;2023-06-14T19:06:15;94515.53;;;25.04;56.25
27958;BME280;15295;42.658;23.374;2023-06-14T19:09:06;94503.44;;;24.92;55.24
27958;BME280;15295;42.658;23.374;2023-06-14T19:12:20;94480.47;;;24.63;55.10
27958;BME280;15295;42.658;23.374;2023-06-14T19:15:13;94485.63;;;24.49;55.58
27958;BME280;15295;42.658;23.374;2023-06-14T19:18:00;94490.94;;;24.47;55.67
27958;BME280;15295;42.658;23.374;2023-06-14T19:21:04;94503.66;;;24.48;56.04
27958;BME280;15295;42.658;23.374;2023-06-14T19:37:18;94525.16;;;24.22;56.11
27958;BME280;15295;42.658;23.374;2023-06-14T19:40:07;94526.31;;;24.16;56.37
27958;BME280;15295;42.658;23.374;2023-06-14T19:42:41;94554.19;;;24.30;56.58
27958;BME280;15295;42.658;23.374;2023-06-14T19:51:28;94531.06;;;23.95;56.74
27958;BME280;15295;42.658;23.374;2023-06-14T19:54:01;94559.75;;;23.96;55.93
27958;BME280;15295;42.658;23.374;2023-06-14T19:56:27;94550.16;;;23.82;55.03
27958;BME280;15295;42.658;23.374;2023-06-14T19:59:08;94550.25;;;23.73;56.50
27958;BME280;15295;42.658;23.374;2023-06-14T20:01:42;94498.31;;;23.32;56.88
27958;BME280;15295;42.658;23.374;2023-06-14T20:04:29;94490.03;;;23.23;56.13
27958;BME280;15295;42.658;23.374;2023-06-14T20:07:26;94508.53;;;23.35;56.89
27958;BME280;15295;42.658;23.374;2023-06-14T20:09:59;94506.03;;;23.37;56.61
27958;BME280;15295;42.658;23.374;2023-06-14T20:12:26;94500.03;;;23.15;56.05
27958;BME280;15295;42.658;23.374;2023-06-14T20:15:26;94540.63;;;23.30;56.77
27958;BME280;15295;42.658;23.374;2023-06-14T20:18:14;94510.41;;;22.85;58.24
27958;BME280;15295;42.658;23.374;2023-06-14T20:20:44;94497.56;;;22.40;58.52
27958;BME280;15295;42.658;23.374;2023-06-14T20:23:35;94522.28;;;22.23;59.72
27958;BME280;15295;42.658;23.374;2023-06-14T20:26:13;94510.38;;;21.99;60.14
27958;BME280;15295;42.658;23.374;2023-06-14T20:29:01;94497.16;;;21.85;60.06
27958;BME280;15295;42.658;23.374;2023-06-14T20:32:11;94481.59;;;21.70;60.17
27958;BME280;15295;42.658;23.374;2023-06-14T20:35:10;94540.47;;;22.10;60.40
27958;BME280;15295;42.658;23.374;2023-06-14T20:37:45;94547.13;;;22.03;61.30
27958;BME280;15295;42.658;23.374;2023-06-14T20:40:21;94528.22;;;21.84;62.12
27958;BME280;15295;42.658;23.374;2023-06-14T20:43:08;94486.34;;;21.45;62.01
27958;BME280;15295;42.658;23.374;2023-06-14T20:46:04;94503.38;;;21.71;62.29
27958;BME280;15295;42.658;23.374;2023-06-14T20:48:34;94537.25;;;22.02;63.15
27958;BME280;15295;42.658;23.374;2023-06-14T20:51:08;94493.13;;;21.86;63.46
27958;BME280;15295;42.658;23.374;2023-06-14T20:53:46;94530.47;;;21.94;63.18
27958;BME280;15295;42.658;23.374;2023-06-14T20:56:17;94553.78;;;22.06;63.11
27958;BME280;15295;42.658;23.374;2023-06-14T20:59:04;94559.34;;;22.06;63.80
27958;BME280;15295;42.658;23.374;2023-06-14T21:01:45;94526.69;;;21.83;63.67
27958;BME280;15295;42.658;23.374;2023-06-14T21:04:16;94529.59;;;21.88;63.99
27958;BME280;15295;42.658;23.374;2023-06-14T21:06:49;94489.97;;;21.61;64.35
27958;BME280;15295;42.658;23.374;2023-06-14T21:09:16;94500.09;;;21.73;64.06
27958;BME280;15295;42.658;23.374;2023-06-14T21:12:08;94530.78;;;21.96;64.48
27958;BME280;15295;42.658;23.374;2023-06-14T21:14:38;94553.72;;;22.15;64.31
27958;BME280;15295;42.658;23.374;2023-06-14T21:20:48;94520.31;;;21.91;63.94
27958;BME280;15295;42.658;23.374;2023-06-14T21:29:14;94550.34;;;22.11;64.81
27958;BME280;15295;42.658;23.374;2023-06-14T21:32:09;94552.53;;;22.07;64.86
27958;BME280;15295;42.658;23.374;2023-06-14T21:35:02;94504.91;;;21.72;65.02
27958;BME280;15295;42.658;23.374;2023-06-14T21:38:00;94497.28;;;21.82;64.98
27958;BME280;15295;42.658;23.374;2023-06-14T21:40:50;94485.31;;;21.67;64.68
27958;BME280;15295;42.658;23.374;2023-06-14T21:43:35;94533.41;;;22.00;65.19
27958;BME280;15295;42.658;23.374;2023-06-14T21:46:34;94531.22;;;22.04;65.19
27958;BME280;15295;42.658;23.374;2023-06-14T21:58:48;94505.63;;;21.82;65.39
27958;BME280;15295;42.658;23.374;2023-06-14T22:01:22;94491.16;;;21.69;65.73
27958;BME280;15295;42.658;23.374;2023-06-14T22:03:56;94554.72;;;22.03;65.60
27958;BME280;15295;42.658;23.374;2023-06-14T22:06:34;94529.00;;;21.84;66.26
27958;BME280;15295;42.658;23.374;2023-06-14T22:09:12;94543.88;;;22.05;66.10
27958;BME280;15295;42.658;23.374;2023-06-14T22:11:56;94541.56;;;22.03;65.54
27958;BME280;15295;42.658;23.374;2023-06-14T22:14:45;94537.47;;;21.90;65.07
27958;BME280;15295;42.658;23.374;2023-06-14T22:17:16;94528.06;;;21.87;65.32
27958;BME280;15295;42.658;23.374;2023-06-14T22:20:21;94525.72;;;21.86;65.71
27958;BME280;15295;42.658;23.374;2023-06-14T22:22:49;94521.13;;;21.83;65.63
27958;BME280;15295;42.658;23.374;2023-06-14T22:25:25;94515.56;;;21.83;65.45
27958;BME280;15295;42.658;23.374;2023-06-14T22:27:59;94512.44;;;21.81;65.54
27958;BME280;15295;42.658;23.374;2023-06-14T22:33:02;94532.44;;;22.03;65.64
27958;BME280;15295;42.658;23.374;2023-06-14T22:35:56;94502.84;;;21.91;65.58
27958;BME280;15295;42.658;23.374;2023-06-14T22:38:44;94537.97;;;22.12;65.91
27958;BME280;15295;42.658;23.374;2023-06-14T22:41:50;94504.06;;;21.90;66.13
27958;BME280;15295;42.658;23.374;2023-06-14T22:44:19;94498.34;;;21.93;65.84
27958;BME280;15295;42.658;23.374;2023-06-14T22:46:44;94482.97;;;21.83;65.28
27958;BME280;15295;42.658;23.374;2023-06-14T22:50:06;94539.53;;;22.13;65.53
27958;BME280;15295;42.658;23.374;2023-06-14T22:52:53;94494.22;;;21.80;65.03
27958;BME280;15295;42.658;23.374;2023-06-14T22:55:26;94510.66;;;22.01;65.17
27958;BME280;15295;42.658;23.374;2023-06-14T22:58:02;94508.38;;;22.00;65.45
27958;BME280;15295;42.658;23.374;2023-06-14T23:00:50;94535.19;;;22.12;64.68
27958;BME280;15295;42.658;23.374;2023-06-14T23:03:20;94516.22;;;22.01;64.25
27958;BME280;15295;42.658;23.374;2023-06-14T23:05:55;94511.84;;;22.09;64.51
27958;BME280;15295;42.658;23.374;2023-06-14T23:08:24;94516.78;;;22.14;65.20
27958;BME280;15295;42.658;23.374;2023-06-14T23:10:51;94503.44;;;21.95;65.35
27958;BME280;15295;42.658;23.374;2023-06-14T23:13:26;94491.66;;;22.00;65.61
27958;BME280;15295;42.658;23.374;2023-06-14T23:15:55;94491.09;;;22.19;65.60
27958;BME280;15295;42.658;23.374;2023-06-14T23:18:35;94448.19;;;21.79;65.71
27958;BME280;15295;42.658;23.374;2023-06-14T23:21:12;94507.84;;;22.10;65.63
27958;BME280;15295;42.658;23.374;2023-06-14T23:23:53;94494.75;;;22.02;65.62
27958;BME280;15295;42.658;23.374;2023-06-14T23:26:38;94479.94;;;21.96;65.53
27958;BME280;15295;42.658;23.374;2023-06-14T23:29:35;94494.50;;;22.14;65.23
27958;BME280;15295;42.658;23.374;2023-06-14T23:32:07;94500.72;;;22.09;65.25
27958;BME280;15295;42.658;23.374;2023-06-14T23:35:03;94514.94;;;22.11;64.85
27958;BME280;15295;42.658;23.374;2023-06-14T23:37:39;94514.34;;;22.07;64.84
27958;BME280;15295;42.658;23.374;2023-06-14T23:40:12;94488.59;;;21.98;65.09
27958;BME280;15295;42.658;23.374;2023-06-14T23:42:48;94451.59;;;21.74;65.08
27958;BME280;15295;42.658;23.374;2023-06-14T23:45:23;94461.69;;;21.62;65.15
27958;BME280;15295;42.658;23.374;2023-06-14T23:48:09;94508.38;;;22.00;65.44
27958;BME280;15295;42.658;23.374;2023-06-14T23:50:36;94502.75;;;22.09;65.51
27958;BME280;15295;42.658;23.374;2023-06-14T23:53:06;94483.78;;;21.98;65.33
27958;BME280;15295;42.658;23.374;2023-06-14T23:56:07;94445.09;;;21.77;65.35
27958;BME280;15295;42.658;23.374;2023-06-14T23:58:45;94512.28;;;22.17;65.36
